sensor_id;sensor_type;location;lat;lon;timestamp;temperature;humidity
37310;DHT22;23195;47.744;7.358;2023-03-14T00:01:20;11.00;99.90
37310;DHT22;23195;47.744;7.358;2023-03-14T00:03:46;11.00;99.90
37310;DHT22;23195;47.744;7.358;2023-03-14T00:06:13;11.00;99.90
37310;DHT22;23195;47.744;7.358;2023-03-14T00:08:39;11.00;99.90
37310;DHT22;23195;47.744;7.358;2023-03-14T00:11:11;11.00;99.90
37310;DHT22;23195;47.744;7.358;2023-03-14T00:13:40;11.00;99.90
37310;DHT22;23195;47.744;7.358;2023-03-14T00:16:12;11.00;99.90
37310;DHT22;23195;47.744;7.358;2023-03-14T00:18:38;11.10;99.90
37310;DHT22;23195;47.744;7.358;2023-03-14T00:21:06;11.10;99.90
37310;DHT22;23195;47.744;7.358;2023-03-14T00:23:34;11.10;99.90
37310;DHT22;23195;47.744;7.358;2023-03-14T00:26:01;11.20;99.90
37310;DHT22;23195;47.744;7.358;2023-03-14T00:28:27;11.20;99.90
37310;DHT22;23195;47.744;7.358;2023-03-14T00:30:56;11.20;99.90
37310;DHT22;23195;47.744;7.358;2023-03-14T00:33:23;11.50;99.90
37310;DHT22;23195;47.744;7.358;2023-03-14T00:35:58;11.20;99.90
37310;DHT22;23195;47.744;7.358;2023-03-14T00:38:25;11.20;99.90
37310;DHT22;23195;47.744;7.358;2023-03-14T00:40:52;11.20;99.90
37310;DHT22;23195;47.744;7.358;2023-03-14T00:43:19;11.20;99.90
37310;DHT22;23195;47.744;7.358;2023-03-14T00:45:49;11.20;99.90
37310;DHT22;23195;47.744;7.358;2023-03-14T00:48:19;11.30;99.90
37310;DHT22;23195;47.744;7.358;2023-03-14T00:50:46;11.30;99.90
37310;DHT22;23195;47.744;7.358;2023-03-14T00:53:12;11.30;99.90
37310;DHT22;23195;47.744;7.358;2023-03-14T00:55:40;11.30;99.90
37310;DHT22;23195;47.744;7.358;2023-03-14T00:58:06;11.30;99.90
37310;DHT22;23195;47.744;7.358;2023-03-14T01:00:32;11.30;99.90
37310;DHT22;23195;47.744;7.358;2023-03-14T01:02:58;11.20;99.90
37310;DHT22;23195;47.744;7.358;2023-03-14T01:05:24;11.20;99.90
37310;DHT22;23195;47.744;7.358;2023-03-14T01:07:50;11.20;99.90
37310;DHT22;23195;47.744;7.358;2023-03-14T01:10:16;11.60;99.90
37310;DHT22;23195;47.744;7.358;2023-03-14T01:12:42;11.10;99.90
37310;DHT22;23195;47.744;7.358;2023-03-14T01:15:08;11.10;99.90
37310;DHT22;23195;47.744;7.358;2023-03-14T01:17:34;11.10;99.90
37310;DHT22;23195;47.744;7.358;2023-03-14T01:20:00;11.10;99.90
37310;DHT22;23195;47.744;7.358;2023-03-14T01:22:26;11.00;99.90
37310;DHT22;23195;47.744;7.358;2023-03-14T01:24:52;11.00;99.90
37310;DHT22;23195;47.744;7.358;2023-03-14T01:27:18;11.00;99.90
37310;DHT22;23195;47.744;7.358;2023-03-14T01:29:44;11.00;99.90
37310;DHT22;23195;47.744;7.358;2023-03-14T01:32:10;11.00;99.90
37310;DHT22;23195;47.744;7.358;2023-03-14T01:34:35;11.00;99.90
37310;DHT22;23195;47.744;7.358;2023-03-14T01:37:01;11.10;99.90
37310;DHT22;23195;47.744;7.358;2023-03-14T01:39:27;11.00;99.90
37310;DHT22;23195;47.744;7.358;2023-03-14T01:41:54;11.00;99.90
37310;DHT22;23195;47.744;7.358;2023-03-14T01:44:20;10.90;99.90
37310;DHT22;23195;47.744;7.358;2023-03-14T01:46:46;10.90;99.90
37310;DHT22;23195;47.744;7.358;2023-03-14T01:49:13;11.00;99.90
37310;DHT22;23195;47.744;7.358;2023-03-14T01:51:51;11.00;99.90
37310;DHT22;23195;47.744;7.358;2023-03-14T01:57:16;10.90;99.90
37310;DHT22;23195;47.744;7.358;2023-03-14T01:59:51;11.10;99.90
37310;DHT22;23195;47.744;7.358;2023-03-14T02:02:18;11.00;99.90
37310;DHT22;23195;47.744;7.358;2023-03-14T02:04:47;11.00;99.90
37310;DHT22;23195;47.744;7.358;2023-03-14T02:07:22;11.10;99.90
37310;DHT22;23195;47.744;7.358;2023-03-14T02:09:52;11.10;99.90
37310;DHT22;23195;47.744;7.358;2023-03-14T02:12:20;11.10;99.90
37310;DHT22;23195;47.744;7.358;2023-03-14T02:14:47;11.10;99.90
37310;DHT22;23195;47.744;7.358;2023-03-14T02:17:15;11.10;99.90
37310;DHT22;23195;47.744;7.358;2023-03-14T02:22:12;11.10;99.90
37310;DHT22;23195;47.744;7.358;2023-03-14T02:27:18;11.00;99.90
37310;DHT22;23195;47.744;7.358;2023-03-14T02:29:55;11.00;99.90
37310;DHT22;23195;47.744;7.358;2023-03-14T02:32:24;11.30;99.90
37310;DHT22;23195;47.744;7.358;2023-03-14T02:34:54;11.10;99.90
37310;DHT22;23195;47.744;7.358;2023-03-14T02:37:23;11.20;99.90
37310;DHT22;23195;47.744;7.358;2023-03-14T02:39:52;11.10;99.90
37310;DHT22;23195;47.744;7.358;2023-03-14T02:42:18;11.10;99.90
37310;DHT22;23195;47.744;7.358;2023-03-14T02:44:53;11.10;99.90
37310;DHT22;23195;47.744;7.358;2023-03-14T02:47:28;11.10;99.90
37310;DHT22;23195;47.744;7.358;2023-03-14T02:50:13;11.00;99.90
37310;DHT22;23195;47.744;7.358;2023-03-14T02:52:40;11.10;99.90
37310;DHT22;23195;47.744;7.358;2023-03-14T02:55:06;11.00;99.90
37310;DHT22;23195;47.744;7.358;2023-03-14T02:57:32;11.00;99.90
37310;DHT22;23195;47.744;7.358;2023-03-14T03:00:03;10.90;99.90
37310;DHT22;23195;47.744;7.358;2023-03-14T03:02:32;10.90;99.90
37310;DHT22;23195;47.744;7.358;2023-03-14T03:04:58;10.90;99.90
37310;DHT22;23195;47.744;7.358;2023-03-14T03:07:24;10.90;99.90
37310;DHT22;23195;47.744;7.358;2023-03-14T03:09:50;10.80;99.90
37310;DHT22;23195;47.744;7.358;2023-03-14T03:12:16;10.80;99.90
37310;DHT22;23195;47.744;7.358;2023-03-14T03:14:41;10.90;99.90
37310;DHT22;23195;47.744;7.358;2023-03-14T03:17:07;10.80;99.90
37310;DHT22;23195;47.744;7.358;2023-03-14T03:19:34;10.80;99.90
37310;DHT22;23195;47.744;7.358;2023-03-14T03:22:00;10.70;99.90
37310;DHT22;23195;47.744;7.358;2023-03-14T03:24:29;11.30;99.90
37310;DHT22;23195;47.744;7.358;2023-03-14T03:26:55;9.90;99.90
37310;DHT22;23195;47.744;7.358;2023-03-14T03:29:24;10.60;99.90
37310;DHT22;23195;47.744;7.358;2023-03-14T03:31:49;10.60;99.90
37310;DHT22;23195;47.744;7.358;2023-03-14T03:34:15;10.60;99.90
37310;DHT22;23195;47.744;7.358;2023-03-14T03:36:41;10.60;99.90
37310;DHT22;23195;47.744;7.358;2023-03-14T03:39:07;10.60;99.90
37310;DHT22;23195;47.744;7.358;2023-03-14T03:41:33;10.60;99.90
37310;DHT22;23195;47.744;7.358;2023-03-14T03:43:59;10.70;99.90
37310;DHT22;23195;47.744;7.358;2023-03-14T03:46:25;10.70;99.90
37310;DHT22;23195;47.744;7.358;2023-03-14T03:48:59;10.70;99.90
37310;DHT22;23195;47.744;7.358;2023-03-14T03:51:28;10.70;99.90
37310;DHT22;23195;47.744;7.358;2023-03-14T03:53:53;10.50;99.90
37310;DHT22;23195;47.744;7.358;2023-03-14T03:56:22;10.60;99.90
37310;DHT22;23195;47.744;7.358;2023-03-14T03:58:48;10.60;99.90
37310;DHT22;23195;47.744;7.358;2023-03-14T04:01:14;10.60;99.90
37310;DHT22;23195;47.744;7.358;2023-03-14T04:03:40;10.60;99.90
37310;DHT22;23195;47.744;7.358;2023-03-14T04:06:08;10.60;99.90
37310;DHT22;23195;47.744;7.358;2023-03-14T04:08:34;10.70;99.90
37310;DHT22;23195;47.744;7.358;2023-03-14T04:11:01;10.60;99.90
37310;DHT22;23195;47.744;7.358;2023-03-14T04:13:27;10.60;99.90
37310;DHT22;23195;47.744;7.358;2023-03-14T04:15:54;10.60;99.90
37310;DHT22;23195;47.744;7.358;2023-03-14T04:18:21;10.50;99.90
37310;DHT22;23195;47.744;7.358;2023-03-14T04:20:55;10.50;99.90
37310;DHT22;23195;47.744;7.358;2023-03-14T04:23:22;10.50;99.90
37310;DHT22;23195;47.744;7.358;2023-03-14T04:25:50;10.40;99.90
37310;DHT22;23195;47.744;7.358;2023-03-14T04:28:16;10.40;99.90
37310;DHT22;23195;47.744;7.358;2023-03-14T04:30:42;10.30;99.90
37310;DHT22;23195;47.744;7.358;2023-03-14T04:33:08;10.30;99.90
37310;DHT22;23195;47.744;7.358;2023-03-14T04:35:34;10.30;99.90
37310;DHT22;23195;47.744;7.358;2023-03-14T04:38:00;8.90;99.90
37310;DHT22;23195;47.744;7.358;2023-03-14T04:40:25;10.20;99.90
37310;DHT22;23195;47.744;7.358;2023-03-14T04:42:51;10.20;99.90
37310;DHT22;23195;47.744;7.358;2023-03-14T04:45:20;10.10;99.90
37310;DHT22;23195;47.744;7.358;2023-03-14T04:47:46;10.10;99.90
37310;DHT22;23195;47.744;7.358;2023-03-14T04:50:12;10.10;99.90
37310;DHT22;23195;47.744;7.358;2023-03-14T04:52:38;10.20;99.90
37310;DHT22;23195;47.744;7.358;2023-03-14T04:55:04;10.20;99.90
37310;DHT22;23195;47.744;7.358;2023-03-14T04:57:30;10.20;99.90
37310;DHT22;23195;47.744;7.358;2023-03-14T04:59:55;10.20;99.90
37310;DHT22;23195;47.744;7.358;2023-03-14T05:02:24;10.10;99.90
37310;DHT22;23195;47.744;7.358;2023-03-14T05:04:49;10.10;99.90
37310;DHT22;23195;47.744;7.358;2023-03-14T05:07:15;10.10;99.90
37310;DHT22;23195;47.744;7.358;2023-03-14T05:09:41;10.00;99.90
37310;DHT22;23195;47.744;7.358;2023-03-14T05:12:10;10.00;99.90
37310;DHT22;23195;47.744;7.358;2023-03-14T05:14:36;10.00;99.90
37310;DHT22;23195;47.744;7.358;2023-03-14T05:17:01;10.00;99.90
37310;DHT22;23195;47.744;7.358;2023-03-14T05:19:30;10.00;99.90
37310;DHT22;23195;47.744;7.358;2023-03-14T05:21:56;10.00;99.90
37310;DHT22;23195;47.744;7.358;2023-03-14T05:24:22;10.00;99.90
37310;DHT22;23195;47.744;7.358;2023-03-14T05:26:48;10.00;99.90
37310;DHT22;23195;47.744;7.358;2023-03-14T05:29:14;10.00;99.90
37310;DHT22;23195;47.744;7.358;2023-03-14T05:31:40;10.00;99.90
37310;DHT22;23195;47.744;7.358;2023-03-14T05:34:05;10.10;99.90
37310;DHT22;23195;47.744;7.358;2023-03-14T05:36:31;10.10;99.90
37310;DHT22;23195;47.744;7.358;2023-03-14T05:38:57;10.10;99.90
37310;DHT22;23195;47.744;7.358;2023-03-14T05:41:23;10.10;99.90
37310;DHT22;23195;47.744;7.358;2023-03-14T05:43:49;9.60;99.90
37310;DHT22;23195;47.744;7.358;2023-03-14T05:46:14;10.60;99.90
37310;DHT22;23195;47.744;7.358;2023-03-14T05:48:40;10.40;99.90
37310;DHT22;23195;47.744;7.358;2023-03-14T05:51:08;10.40;99.90
37310;DHT22;23195;47.744;7.358;2023-03-14T05:53:34;10.30;99.90
37310;DHT22;23195;47.744;7.358;2023-03-14T05:56:03;10.40;99.90
37310;DHT22;23195;47.744;7.358;2023-03-14T05:58:29;10.40;99.90
37310;DHT22;23195;47.744;7.358;2023-03-14T06:01:02;10.40;99.90
37310;DHT22;23195;47.744;7.358;2023-03-14T06:03:34;10.40;99.90
37310;DHT22;23195;47.744;7.358;2023-03-14T06:06:00;10.40;99.90
37310;DHT22;23195;47.744;7.358;2023-03-14T06:08:25;10.40;99.90
37310;DHT22;23195;47.744;7.358;2023-03-14T06:10:57;10.30;99.90
37310;DHT22;23195;47.744;7.358;2023-03-14T06:13:23;10.40;99.90
37310;DHT22;23195;47.744;7.358;2023-03-14T06:15:48;10.30;99.90
37310;DHT22;23195;47.744;7.358;2023-03-14T06:18:14;10.30;99.90
37310;DHT22;23195;47.744;7.358;2023-03-14T06:20:40;10.20;99.90
37310;DHT22;23195;47.744;7.358;2023-03-14T06:23:07;10.20;99.90
37310;DHT22;23195;47.744;7.358;2023-03-14T06:25:39;10.20;99.90
37310;DHT22;23195;47.744;7.358;2023-03-14T06:28:04;10.20;99.90
37310;DHT22;23195;47.744;7.358;2023-03-14T06:30:30;10.30;99.90
37310;DHT22;23195;47.744;7.358;2023-03-14T06:32:59;10.30;99.90
37310;DHT22;23195;47.744;7.358;2023-03-14T06:35:25;10.00;99.90
37310;DHT22;23195;47.744;7.358;2023-03-14T06:37:53;10.50;99.90
37310;DHT22;23195;47.744;7.358;2023-03-14T06:40:19;10.50;99.90
37310;DHT22;23195;47.744;7.358;2023-03-14T06:42:45;10.60;99.90
37310;DHT22;23195;47.744;7.358;2023-03-14T06:45:11;10.70;99.90
37310;DHT22;23195;47.744;7.358;2023-03-14T06:47:37;10.70;99.90
37310;DHT22;23195;47.744;7.358;2023-03-14T06:50:05;10.80;99.90
37310;DHT22;23195;47.744;7.358;2023-03-14T06:52:31;10.80;99.90
37310;DHT22;23195;47.744;7.358;2023-03-14T06:54:57;11.00;99.90
37310;DHT22;23195;47.744;7.358;2023-03-14T06:57:26;11.10;99.90
37310;DHT22;23195;47.744;7.358;2023-03-14T06:59:51;11.10;99.90
37310;DHT22;23195;47.744;7.358;2023-03-14T07:02:17;11.20;99.90
37310;DHT22;23195;47.744;7.358;2023-03-14T07:04:43;11.30;99.90
37310;DHT22;23195;47.744;7.358;2023-03-14T07:07:12;11.30;99.90
37310;DHT22;23195;47.744;7.358;2023-03-14T07:09:38;11.40;99.90
37310;DHT22;23195;47.744;7.358;2023-03-14T07:12:04;11.50;99.90
37310;DHT22;23195;47.744;7.358;2023-03-14T07:14:30;11.50;99.90
37310;DHT22;23195;47.744;7.358;2023-03-14T07:16:59;11.40;99.90
37310;DHT22;23195;47.744;7.358;2023-03-14T07:19:25;11.30;99.90
37310;DHT22;23195;47.744;7.358;2023-03-14T07:21:54;11.40;99.90
37310;DHT22;23195;47.744;7.358;2023-03-14T07:24:20;11.50;99.90
37310;DHT22;23195;47.744;7.358;2023-03-14T07:26:45;11.50;99.90
37310;DHT22;23195;47.744;7.358;2023-03-14T07:29:11;11.50;99.90
37310;DHT22;23195;47.744;7.358;2023-03-14T07:31:37;11.50;99.90
37310;DHT22;23195;47.744;7.358;2023-03-14T07:34:03;11.50;99.90
37310;DHT22;23195;47.744;7.358;2023-03-14T07:36:29;11.70;99.90
37310;DHT22;23195;47.744;7.358;2023-03-14T07:38:54;11.60;99.90
37310;DHT22;23195;47.744;7.358;2023-03-14T07:41:20;11.60;99.90
37310;DHT22;23195;47.744;7.358;2023-03-14T07:43:46;11.70;99.90
37310;DHT22;23195;47.744;7.358;2023-03-14T07:46:12;11.70;99.90
37310;DHT22;23195;47.744;7.358;2023-03-14T07:48:38;11.80;99.90
37310;DHT22;23195;47.744;7.358;2023-03-14T07:51:07;11.80;99.90
37310;DHT22;23195;47.744;7.358;2023-03-14T07:53:35;10.60;99.90
37310;DHT22;23195;47.744;7.358;2023-03-14T07:56:04;11.40;99.90
37310;DHT22;23195;47.744;7.358;2023-03-14T07:58:30;11.90;99.90
37310;DHT22;23195;47.744;7.358;2023-03-14T08:00:58;11.90;99.90
37310;DHT22;23195;47.744;7.358;2023-03-14T08:03:29;11.80;99.90
37310;DHT22;23195;47.744;7.358;2023-03-14T08:05:57;11.90;99.90
37310;DHT22;23195;47.744;7.358;2023-03-14T08:08:23;11.90;99.90
37310;DHT22;23195;47.744;7.358;2023-03-14T08:10:49;12.00;99.90
37310;DHT22;23195;47.744;7.358;2023-03-14T08:13:14;12.10;99.90
37310;DHT22;23195;47.744;7.358;2023-03-14T08:15:40;12.20;99.90
37310;DHT22;23195;47.744;7.358;2023-03-14T08:18:06;12.30;99.90
37310;DHT22;23195;47.744;7.358;2023-03-14T08:20:44;12.30;99.90
37310;DHT22;23195;47.744;7.358;2023-03-14T08:23:10;12.30;99.90
37310;DHT22;23195;47.744;7.358;2023-03-14T08:25:40;12.30;99.90
37310;DHT22;23195;47.744;7.358;2023-03-14T08:28:06;12.40;99.90
37310;DHT22;23195;47.744;7.358;2023-03-14T08:30:35;12.50;99.90
37310;DHT22;23195;47.744;7.358;2023-03-14T08:33:04;12.50;99.90
37310;DHT22;23195;47.744;7.358;2023-03-14T08:35:37;12.40;99.90
37310;DHT22;23195;47.744;7.358;2023-03-14T08:38:03;12.50;99.90
37310;DHT22;23195;47.744;7.358;2023-03-14T08:40:29;12.40;99.90
37310;DHT22;23195;47.744;7.358;2023-03-14T08:42:54;12.40;99.90
37310;DHT22;23195;47.744;7.358;2023-03-14T08:45:20;12.40;99.90
37310;DHT22;23195;47.744;7.358;2023-03-14T08:47:47;12.40;99.90
37310;DHT22;23195;47.744;7.358;2023-03-14T08:50:13;12.50;99.90
37310;DHT22;23195;47.744;7.358;2023-03-14T08:52:39;12.50;99.90
37310;DHT22;23195;47.744;7.358;2023-03-14T08:55:12;12.50;99.90
37310;DHT22;23195;47.744;7.358;2023-03-14T08:57:40;12.20;99.90
37310;DHT22;23195;47.744;7.358;2023-03-14T09:00:08;12.50;99.90
37310;DHT22;23195;47.744;7.358;2023-03-14T09:02:40;12.60;99.90
37310;DHT22;23195;47.744;7.358;2023-03-14T09:05:06;12.50;99.90
37310;DHT22;23195;47.744;7.358;2023-03-14T09:07:32;12.50;99.90
37310;DHT22;23195;47.744;7.358;2023-03-14T09:09:58;12.40;99.90
37310;DHT22;23195;47.744;7.358;2023-03-14T09:12:24;12.40;99.90
37310;DHT22;23195;47.744;7.358;2023-03-14T09:14:49;12.30;99.90
37310;DHT22;23195;47.744;7.358;2023-03-14T09:17:18;12.20;99.90
37310;DHT22;23195;47.744;7.358;2023-03-14T09:19:44;12.20;99.90
37310;DHT22;23195;47.744;7.358;2023-03-14T09:22:10;12.20;99.90
37310;DHT22;23195;47.744;7.358;2023-03-14T09:24:35;12.00;99.90
37310;DHT22;23195;47.744;7.358;2023-03-14T09:27:01;12.00;99.90
37310;DHT22;23195;47.744;7.358;2023-03-14T09:29:27;12.00;99.90
37310;DHT22;23195;47.744;7.358;2023-03-14T09:31:53;12.10;99.90
37310;DHT22;23195;47.744;7.358;2023-03-14T09:34:19;12.20;99.90
37310;DHT22;23195;47.744;7.358;2023-03-14T09:36:45;12.30;99.90
37310;DHT22;23195;47.744;7.358;2023-03-14T09:39:14;12.20;99.90
37310;DHT22;23195;47.744;7.358;2023-03-14T09:41:42;12.30;99.90
37310;DHT22;23195;47.744;7.358;2023-03-14T09:44:18;12.30;99.90
37310;DHT22;23195;47.744;7.358;2023-03-14T09:46:48;11.90;99.90
37310;DHT22;23195;47.744;7.358;2023-03-14T09:49:39;11.80;99.90
37310;DHT22;23195;47.744;7.358;2023-03-14T09:54:59;11.70;99.90
37310;DHT22;23195;47.744;7.358;2023-03-14T09:57:32;11.80;99.90
37310;DHT22;23195;47.744;7.358;2023-03-14T10:00:05;11.80;99.90
37310;DHT22;23195;47.744;7.358;2023-03-14T10:02:41;11.90;99.90
37310;DHT22;23195;47.744;7.358;2023-03-14T10:05:18;11.80;99.90
37310;DHT22;23195;47.744;7.358;2023-03-14T10:07:45;11.70;99.90
37310;DHT22;23195;47.744;7.358;2023-03-14T10:12:46;11.80;99.90
37310;DHT22;23195;47.744;7.358;2023-03-14T10:15:13;11.90;99.90
37310;DHT22;23195;47.744;7.358;2023-03-14T10:17:50;12.00;99.90
37310;DHT22;23195;47.744;7.358;2023-03-14T10:23:02;12.00;99.90
37310;DHT22;23195;47.744;7.358;2023-03-14T10:25:33;11.80;99.90
37310;DHT22;23195;47.744;7.358;2023-03-14T10:27:59;11.50;99.90
37310;DHT22;23195;47.744;7.358;2023-03-14T10:30:39;11.40;99.90
37310;DHT22;23195;47.744;7.358;2023-03-14T10:33:22;11.30;99.90
37310;DHT22;23195;47.744;7.358;2023-03-14T10:36:06;11.30;99.90
37310;DHT22;23195;47.744;7.358;2023-03-14T10:38:40;11.30;99.90
37310;DHT22;23195;47.744;7.358;2023-03-14T10:41:26;11.20;99.90
37310;DHT22;23195;47.744;7.358;2023-03-14T10:44:00;11.30;99.90
37310;DHT22;23195;47.744;7.358;2023-03-14T10:46:30;11.40;99.90
37310;DHT22;23195;47.744;7.358;2023-03-14T10:48:56;11.50;99.90
37310;DHT22;23195;47.744;7.358;2023-03-14T10:51:27;11.60;99.90
37310;DHT22;23195;47.744;7.358;2023-03-14T10:54:12;11.80;99.90
37310;DHT22;23195;47.744;7.358;2023-03-14T10:56:38;11.80;99.90
37310;DHT22;23195;47.744;7.358;2023-03-14T10:59:13;12.00;99.90
37310;DHT22;23195;47.744;7.358;2023-03-14T11:02:03;12.00;99.90
37310;DHT22;23195;47.744;7.358;2023-03-14T11:05:03;12.20;99.90
37310;DHT22;23195;47.744;7.358;2023-03-14T11:07:46;12.30;99.90
37310;DHT22;23195;47.744;7.358;2023-03-14T11:10:21;12.10;99.90
37310;DHT22;23195;47.744;7.358;2023-03-14T11:13:15;12.20;99.90
37310;DHT22;23195;47.744;7.358;2023-03-14T11:30:37;12.50;99.90
37310;DHT22;23195;47.744;7.358;2023-03-14T11:33:17;12.70;99.90
37310;DHT22;23195;47.744;7.358;2023-03-14T11:35:58;12.90;99.90
37310;DHT22;23195;47.744;7.358;2023-03-14T11:40:52;13.20;99.90
37310;DHT22;23195;47.744;7.358;2023-03-14T11:43:30;12.90;99.90
37310;DHT22;23195;47.744;7.358;2023-03-14T11:46:07;12.70;99.90
37310;DHT22;23195;47.744;7.358;2023-03-14T11:51:25;12.10;99.90
37310;DHT22;23195;47.744;7.358;2023-03-14T11:53:57;12.10;99.90
37310;DHT22;23195;47.744;7.358;2023-03-14T11:56:36;11.90;99.90
37310;DHT22;23195;47.744;7.358;2023-03-14T11:59:09;11.80;99.90
37310;DHT22;23195;47.744;7.358;2023-03-14T12:01:53;11.90;99.90
37310;DHT22;23195;47.744;7.358;2023-03-14T12:07:08;12.20;99.90
37310;DHT22;23195;47.744;7.358;2023-03-14T12:09:38;12.80;99.90
37310;DHT22;23195;47.744;7.358;2023-03-14T12:12:13;12.60;99.90
37310;DHT22;23195;47.744;7.358;2023-03-14T12:15:00;12.70;99.90
37310;DHT22;23195;47.744;7.358;2023-03-14T12:17:40;12.50;99.90
37310;DHT22;23195;47.744;7.358;2023-03-14T12:20:16;12.30;99.90
37310;DHT22;23195;47.744;7.358;2023-03-14T12:22:48;12.30;99.90
37310;DHT22;23195;47.744;7.358;2023-03-14T12:25:18;12.20;99.90
37310;DHT22;23195;47.744;7.358;2023-03-14T12:30:37;12.10;99.90
37310;DHT22;23195;47.744;7.358;2023-03-14T12:33:25;12.10;99.90
37310;DHT22;23195;47.744;7.358;2023-03-14T12:36:03;12.30;99.90
37310;DHT22;23195;47.744;7.358;2023-03-14T12:41:20;12.50;99.90
37310;DHT22;23195;47.744;7.358;2023-03-14T12:43:51;12.50;99.90
37310;DHT22;23195;47.744;7.358;2023-03-14T12:46:25;12.30;99.90
37310;DHT22;23195;47.744;7.358;2023-03-14T12:48:57;12.30;99.90
37310;DHT22;23195;47.744;7.358;2023-03-14T12:51:41;12.10;99.90
37310;DHT22;23195;47.744;7.358;2023-03-14T13:02:35;11.40;99.90
37310;DHT22;23195;47.744;7.358;2023-03-14T13:10:27;11.40;99.90
37310;DHT22;23195;47.744;7.358;2023-03-14T13:13:03;11.50;99.90
37310;DHT22;23195;47.744;7.358;2023-03-14T13:15:47;11.60;99.90
37310;DHT22;23195;47.744;7.358;2023-03-14T13:18:18;11.60;99.90
37310;DHT22;23195;47.744;7.358;2023-03-14T13:20:55;11.60;99.90
37310;DHT22;23195;47.744;7.358;2023-03-14T13:23:28;11.30;99.90
37310;DHT22;23195;47.744;7.358;2023-03-14T13:25:55;11.40;99.90
37310;DHT22;23195;47.744;7.358;2023-03-14T13:28:21;11.60;99.90
37310;DHT22;23195;47.744;7.358;2023-03-14T13:30:50;11.70;99.90
37310;DHT22;23195;47.744;7.358;2023-03-14T13:33:21;11.70;99.90
37310;DHT22;23195;47.744;7.358;2023-03-14T13:35:57;11.80;99.90
37310;DHT22;23195;47.744;7.358;2023-03-14T13:38:26;11.70;99.90
37310;DHT22;23195;47.744;7.358;2023-03-14T13:40:55;11.50;99.90
37310;DHT22;23195;47.744;7.358;2023-03-14T13:43:29;11.60;99.90
37310;DHT22;23195;47.744;7.358;2023-03-14T13:49:11;12.10;99.90
37310;DHT22;23195;47.744;7.358;2023-03-14T13:51:41;12.30;99.90
37310;DHT22;23195;47.744;7.358;2023-03-14T13:54:19;12.00;99.90
37310;DHT22;23195;47.744;7.358;2023-03-14T13:56:45;12.10;99.90
37310;DHT22;23195;47.744;7.358;2023-03-14T13:59:40;11.90;99.90
37310;DHT22;23195;47.744;7.358;2023-03-14T14:02:32;11.90;99.90
37310;DHT22;23195;47.744;7.358;2023-03-14T14:04:59;11.90;99.90
37310;DHT22;23195;47.744;7.358;2023-03-14T14:07:26;12.00;99.90
37310;DHT22;23195;47.744;7.358;2023-03-14T14:09:55;12.20;99.90
37310;DHT22;23195;47.744;7.358;2023-03-14T14:12:30;12.30;99.90
37310;DHT22;23195;47.744;7.358;2023-03-14T14:17:39;12.10;99.90
37310;DHT22;23195;47.744;7.358;2023-03-14T14:20:12;12.30;99.90
37310;DHT22;23195;47.744;7.358;2023-03-14T14:22:42;12.40;99.90
37310;DHT22;23195;47.744;7.358;2023-03-14T14:25:13;12.20;99.90
37310;DHT22;23195;47.744;7.358;2023-03-14T14:27:46;12.10;99.90
37310;DHT22;23195;47.744;7.358;2023-03-14T14:32:49;11.90;99.90
37310;DHT22;23195;47.744;7.358;2023-03-14T14:35:31;11.70;99.90
37310;DHT22;23195;47.744;7.358;2023-03-14T14:37:57;11.70;99.90
37310;DHT22;23195;47.744;7.358;2023-03-14T14:40:26;11.60;99.90
37310;DHT22;23195;47.744;7.358;2023-03-14T14:43:01;11.00;99.90
37310;DHT22;23195;47.744;7.358;2023-03-14T14:45:28;10.90;99.90
37310;DHT22;23195;47.744;7.358;2023-03-14T14:48:02;11.10;99.90
37310;DHT22;23195;47.744;7.358;2023-03-14T14:50:34;11.10;99.90
37310;DHT22;23195;47.744;7.358;2023-03-14T14:53:23;10.90;99.90
37310;DHT22;23195;47.744;7.358;2023-03-14T14:55:54;10.90;99.90
37310;DHT22;23195;47.744;7.358;2023-03-14T14:58:28;10.80;99.90
37310;DHT22;23195;47.744;7.358;2023-03-14T15:01:12;10.90;99.90
37310;DHT22;23195;47.744;7.358;2023-03-14T15:03:42;11.00;99.90
37310;DHT22;23195;47.744;7.358;2023-03-14T15:06:14;11.10;99.90
37310;DHT22;23195;47.744;7.358;2023-03-14T15:08:45;11.20;99.90
37310;DHT22;23195;47.744;7.358;2023-03-14T15:11:23;11.30;99.90
37310;DHT22;23195;47.744;7.358;2023-03-14T15:13:50;11.50;99.90
37310;DHT22;23195;47.744;7.358;2023-03-14T15:16:19;11.60;99.90
37310;DHT22;23195;47.744;7.358;2023-03-14T15:18:54;11.70;99.90
37310;DHT22;23195;47.744;7.358;2023-03-14T15:21:24;11.60;99.90
37310;DHT22;23195;47.744;7.358;2023-03-14T15:23:51;11.60;99.90
37310;DHT22;23195;47.744;7.358;2023-03-14T15:26:25;11.60;99.90
37310;DHT22;23195;47.744;7.358;2023-03-14T15:29:00;11.40;99.90
37310;DHT22;23195;47.744;7.358;2023-03-14T15:31:29;11.40;99.90
37310;DHT22;23195;47.744;7.358;2023-03-14T15:33:55;11.70;99.90
37310;DHT22;23195;47.744;7.358;2023-03-14T15:36:23;11.20;99.90
37310;DHT22;23195;47.744;7.358;2023-03-14T15:38:53;11.10;99.90
37310;DHT22;23195;47.744;7.358;2023-03-14T15:41:20;11.00;99.90
37310;DHT22;23195;47.744;7.358;2023-03-14T15:43:46;10.90;99.90
37310;DHT22;23195;47.744;7.358;2023-03-14T15:46:15;10.90;99.90
37310;DHT22;23195;47.744;7.358;2023-03-14T15:48:49;10.80;99.90
37310;DHT22;23195;47.744;7.358;2023-03-14T15:51:16;10.80;99.90
37310;DHT22;23195;47.744;7.358;2023-03-14T15:53:42;10.60;99.90
37310;DHT22;23195;47.744;7.358;2023-03-14T15:56:42;10.10;99.90
37310;DHT22;23195;47.744;7.358;2023-03-14T15:59:11;9.60;99.90
37310;DHT22;23195;47.744;7.358;2023-03-14T16:05:20;9.20;99.90
37310;DHT22;23195;47.744;7.358;2023-03-14T16:07:48;9.50;99.90
37310;DHT22;23195;47.744;7.358;2023-03-14T16:10:15;9.50;99.90
37310;DHT22;23195;47.744;7.358;2023-03-14T16:12:41;9.70;99.90
37310;DHT22;23195;47.744;7.358;2023-03-14T16:15:08;9.70;99.90
37310;DHT22;23195;47.744;7.358;2023-03-14T16:17:57;9.70;99.90
37310;DHT22;23195;47.744;7.358;2023-03-14T16:20:23;9.60;99.90
37310;DHT22;23195;47.744;7.358;2023-03-14T16:22:49;9.50;99.90
37310;DHT22;23195;47.744;7.358;2023-03-14T16:25:15;9.60;99.90
37310;DHT22;23195;47.744;7.358;2023-03-14T16:27:44;9.50;99.90
37310;DHT22;23195;47.744;7.358;2023-03-14T16:30:10;9.40;99.90
37310;DHT22;23195;47.744;7.358;2023-03-14T16:32:38;9.30;99.90
37310;DHT22;23195;47.744;7.358;2023-03-14T16:35:05;9.30;99.90
37310;DHT22;23195;47.744;7.358;2023-03-14T16:37:31;9.20;99.90
37310;DHT22;23195;47.744;7.358;2023-03-14T16:40:00;9.30;99.90
37310;DHT22;23195;47.744;7.358;2023-03-14T16:42:25;9.30;99.90
37310;DHT22;23195;47.744;7.358;2023-03-14T16:44:51;9.30;99.90
37310;DHT22;23195;47.744;7.358;2023-03-14T16:47:17;9.30;99.90
37310;DHT22;23195;47.744;7.358;2023-03-14T16:49:43;9.20;99.90
37310;DHT22;23195;47.744;7.358;2023-03-14T16:52:09;9.20;99.90
37310;DHT22;23195;47.744;7.358;2023-03-14T16:54:34;9.30;99.90
37310;DHT22;23195;47.744;7.358;2023-03-14T16:57:00;9.30;99.90